createdAt,value
2018-12-09T00:00:18.294Z,6.91
2018-12-09T00:01:18.303Z,6.91
2018-12-09T00:02:18.272Z,6.91
2018-12-09T00:03:18.261Z,7.04
2018-12-09T00:04:18.251Z,6.94
2018-12-09T00:05:18.241Z,6.95
2018-12-09T00:06:18.283Z,7.01
2018-12-09T00:07:18.252Z,7.08
2018-12-09T00:08:18.211Z,7.02
2018-12-09T00:09:18.229Z,7.07
2018-12-09T00:10:18.215Z,7.08
2018-12-09T00:11:18.228Z,7.08
2018-12-09T00:12:18.162Z,7.12
2018-12-09T00:13:18.164Z,7.13
2018-12-09T00:14:18.144Z,7.12
2018-12-09T00:15:18.141Z,7.04
2018-12-09T00:16:18.123Z,7.13
2018-12-09T00:17:18.157Z,7.04
2018-12-09T00:18:18.113Z,7.04
2018-12-09T00:19:18.115Z,7.04
2018-12-09T00:20:18.081Z,7.05
2018-12-09T00:21:18.079Z,6.99
2018-12-09T00:22:18.095Z,7.01
2018-12-09T00:23:18.049Z,7.02
2018-12-09T00:24:18.049Z,7.05
2018-12-09T00:25:18.052Z,7.07
2018-12-09T00:26:18.021Z,7.02
2018-12-09T00:27:18.071Z,7.15
2018-12-09T00:28:17.997Z,7.08
2018-12-09T00:29:17.988Z,7.12
2018-12-09T00:30:17.979Z,7.04
2018-12-09T00:31:17.971Z,7.04
2018-12-09T00:32:17.960Z,6.99
2018-12-09T00:33:17.980Z,7.01
2018-12-09T00:34:17.937Z,6.99
2018-12-09T00:35:17.925Z,6.95
2018-12-09T00:36:17.920Z,6.90
2018-12-09T00:37:17.907Z,6.91
2018-12-09T00:38:17.926Z,6.86
2018-12-09T00:39:17.892Z,6.84
2018-12-09T00:40:17.879Z,6.86
2018-12-09T00:41:17.860Z,6.84
2018-12-09T00:42:17.862Z,6.83
2018-12-09T00:43:17.863Z,6.80
2018-12-09T00:44:17.832Z,6.80
2018-12-09T00:45:17.830Z,6.83
2018-12-09T00:46:17.806Z,6.86
2018-12-09T00:47:17.795Z,6.90
2018-12-09T00:48:17.817Z,6.94
2018-12-09T00:49:17.778Z,6.91
2018-12-09T00:50:17.763Z,6.99
2018-12-09T00:51:17.774Z,6.99
2018-12-09T00:52:17.753Z,6.99
2018-12-09T00:53:17.770Z,7.01
2018-12-09T00:54:17.731Z,6.98
2018-12-09T00:55:17.931Z,7.01
2018-12-09T00:56:17.714Z,6.98
2018-12-09T00:57:17.970Z,7.01
2018-12-09T00:58:17.681Z,7.02
2018-12-09T00:59:17.694Z,6.91
2018-12-09T01:00:17.669Z,7.01
2018-12-09T01:01:17.651Z,7.02
2018-12-09T01:02:17.643Z,6.95
2018-12-09T01:03:17.629Z,7.02
2018-12-09T01:04:17.644Z,7.04
2018-12-09T01:05:17.619Z,6.95
2018-12-09T01:06:17.598Z,7.15
2018-12-09T01:07:17.637Z,7.09
2018-12-09T01:08:17.581Z,7.19
2018-12-09T01:09:17.592Z,7.17
2018-12-09T01:10:17.565Z,7.19
2018-12-09T01:11:17.547Z,7.15
2018-12-09T01:12:17.539Z,7.24
2018-12-09T01:13:17.540Z,7.24
2018-12-09T01:14:17.540Z,7.32
2018-12-09T01:15:17.509Z,7.27
2018-12-09T01:16:17.494Z,7.29
2018-12-09T01:17:17.487Z,7.26
2018-12-09T01:18:17.482Z,7.29
2018-12-09T01:19:17.501Z,7.15
2018-12-09T01:20:17.465Z,7.15
2018-12-09T01:21:17.447Z,7.22
2018-12-09T01:22:17.443Z,7.17
2018-12-09T01:23:17.449Z,7.23
2018-12-09T01:24:17.413Z,7.20
2018-12-09T01:25:17.425Z,7.17
2018-12-09T01:26:17.389Z,7.15
2018-12-09T01:27:17.384Z,7.16
2018-12-09T01:28:17.371Z,7.26
2018-12-09T01:29:17.395Z,7.27
2018-12-09T01:30:17.474Z,7.24
2018-12-09T01:31:17.339Z,7.26
2018-12-09T01:32:17.326Z,7.35
2018-12-09T01:33:17.320Z,7.37
2018-12-09T01:34:17.339Z,7.49
2018-12-09T01:35:17.301Z,7.45
2018-12-09T01:36:17.297Z,7.45
2018-12-09T01:37:17.279Z,7.56
2018-12-09T01:38:17.263Z,7.53
2018-12-09T01:39:17.291Z,7.53
2018-12-09T01:40:17.277Z,7.53
2018-12-09T01:41:17.255Z,7.63
2018-12-09T01:42:17.220Z,7.53
2018-12-09T01:43:17.223Z,7.55
2018-12-09T01:44:17.204Z,7.60
2018-12-09T01:45:17.233Z,7.55
2018-12-09T01:46:17.189Z,7.55
2018-12-09T01:47:17.182Z,7.56
2018-12-09T01:48:17.169Z,7.55
2018-12-09T01:49:17.153Z,7.45
2018-12-09T01:50:17.190Z,7.56
2018-12-09T01:51:17.134Z,7.56
2018-12-09T01:52:17.117Z,7.52
2018-12-09T01:53:17.107Z,7.56
2018-12-09T01:54:17.107Z,7.55
2018-12-09T01:55:17.114Z,7.55
2018-12-09T01:56:17.075Z,7.55
2018-12-09T01:57:17.070Z,7.55
2018-12-09T01:58:17.064Z,7.56
2018-12-09T01:59:17.047Z,7.60
2018-12-09T02:00:17.068Z,7.56
2018-12-09T02:01:17.028Z,7.56
2018-12-09T02:02:17.013Z,7.59
2018-12-09T02:03:17.017Z,7.59
2018-12-09T02:04:16.995Z,7.60
2018-12-09T02:05:17.087Z,7.66
2018-12-09T02:06:16.984Z,7.60
2018-12-09T02:07:16.962Z,7.63
2018-12-09T02:08:16.952Z,7.60
2018-12-09T02:09:16.947Z,7.66
2018-12-09T02:10:16.993Z,7.67
2018-12-09T02:11:16.926Z,7.66
2018-12-09T02:12:16.969Z,7.72
2018-12-09T02:13:16.921Z,7.67
2018-12-09T02:14:16.889Z,7.79
2018-12-09T02:15:16.912Z,7.75
2018-12-09T02:16:16.897Z,7.75
2018-12-09T02:17:16.862Z,7.59
2018-12-09T02:18:16.853Z,7.77
2018-12-09T02:19:16.851Z,7.67
2018-12-09T02:20:16.838Z,7.69
2018-12-09T02:21:16.876Z,7.71
2018-12-09T02:22:16.814Z,7.66
2018-12-09T02:23:16.799Z,7.75
2018-12-09T02:24:16.798Z,7.79
2018-12-09T02:25:16.778Z,7.79
2018-12-09T02:26:16.768Z,7.82
2018-12-09T02:27:16.878Z,7.84
2018-12-09T02:28:16.747Z,7.81
2018-12-09T02:29:16.738Z,7.74
2018-12-09T02:30:16.740Z,7.84
2018-12-09T02:31:16.719Z,7.82
2018-12-09T02:32:16.737Z,7.77
2018-12-09T02:33:16.703Z,7.81
2018-12-09T02:34:16.689Z,7.77
2018-12-09T02:35:16.679Z,7.82
2018-12-09T02:36:16.680Z,7.82
2018-12-09T02:37:16.700Z,7.81
2018-12-09T02:38:16.646Z,7.78
2018-12-09T02:39:16.658Z,7.72
2018-12-09T02:40:16.638Z,7.74
2018-12-09T02:41:16.628Z,7.77
2018-12-09T02:42:16.630Z,7.82
2018-12-09T02:43:16.620Z,7.71
2018-12-09T02:44:16.589Z,7.72
2018-12-09T02:45:16.580Z,7.72
2018-12-09T02:46:16.571Z,7.74
2018-12-09T02:47:16.583Z,7.71
2018-12-09T02:48:16.599Z,7.77
2018-12-09T02:49:16.545Z,7.75
2018-12-09T02:50:16.528Z,7.75
2018-12-09T02:51:16.623Z,7.71
2018-12-09T02:52:16.533Z,7.66
2018-12-09T02:53:16.548Z,7.67
2018-12-09T02:54:16.490Z,7.74
2018-12-09T02:55:16.477Z,7.85
2018-12-09T02:56:16.468Z,7.71
2018-12-09T02:57:16.458Z,7.78
2018-12-09T02:58:16.468Z,7.77
2018-12-09T02:59:16.439Z,7.74
2018-12-09T03:00:16.425Z,7.85
2018-12-09T03:01:16.416Z,7.84
2018-12-09T03:02:16.403Z,7.79
2018-12-09T03:03:16.417Z,7.78
2018-12-09T03:04:16.389Z,7.82
2018-12-09T03:05:16.374Z,7.79
2018-12-09T03:06:16.368Z,7.74
2018-12-09T03:07:16.354Z,7.81
2018-12-09T03:08:16.389Z,7.81
2018-12-09T03:09:16.446Z,7.79
2018-12-09T03:10:16.325Z,7.79
2018-12-09T03:11:16.316Z,7.81
2018-12-09T03:12:16.306Z,7.77
2018-12-09T03:13:16.297Z,7.81
2018-12-09T03:14:16.316Z,7.89
2018-12-09T03:15:16.274Z,7.94
2018-12-09T03:16:16.278Z,8.00
2018-12-09T03:17:16.265Z,7.81
2018-12-09T03:18:16.293Z,7.81
2018-12-09T03:19:16.243Z,7.89
2018-12-09T03:20:16.223Z,7.85
2018-12-09T03:21:16.216Z,7.79
2018-12-09T03:22:16.204Z,7.82
2018-12-09T03:23:16.225Z,7.79
2018-12-09T03:24:16.335Z,7.87
2018-12-09T03:25:16.180Z,7.82
2018-12-09T03:26:16.168Z,7.77
2018-12-09T03:27:16.156Z,7.82
2018-12-09T03:28:16.145Z,7.78
2018-12-09T03:29:16.162Z,7.81
2018-12-09T03:30:16.227Z,7.77
2018-12-09T03:31:16.116Z,7.74
2018-12-09T03:32:16.107Z,7.72
2018-12-09T03:33:16.094Z,7.72
2018-12-09T03:34:16.130Z,7.72
2018-12-09T03:35:16.081Z,7.72
2018-12-09T03:36:16.061Z,7.71
2018-12-09T03:37:16.056Z,7.74
2018-12-09T03:38:16.041Z,7.72
2018-12-09T03:39:16.053Z,7.74
2018-12-09T03:40:16.022Z,7.74
2018-12-09T03:41:16.027Z,7.74
2018-12-09T03:42:16.003Z,7.69
2018-12-09T03:43:15.988Z,7.71
2018-12-09T03:44:16.013Z,7.69
2018-12-09T03:45:15.972Z,7.66
2018-12-09T03:46:15.995Z,7.62
2018-12-09T03:47:15.959Z,7.59
2018-12-09T03:48:15.943Z,7.71
2018-12-09T03:49:15.934Z,7.58
2018-12-09T03:50:15.941Z,7.62
2018-12-09T03:51:15.935Z,7.66
2018-12-09T03:52:15.902Z,7.58
2018-12-09T03:53:15.889Z,7.53
2018-12-09T03:54:15.883Z,7.58
2018-12-09T03:55:15.884Z,7.53
2018-12-09T03:56:15.881Z,7.52
2018-12-09T03:57:15.851Z,7.59
2018-12-09T03:58:15.843Z,7.52
2018-12-09T03:59:15.833Z,7.56
2018-12-09T04:00:15.847Z,7.58
2018-12-09T04:01:15.801Z,7.53
2018-12-09T04:02:15.799Z,7.52
2018-12-09T04:03:15.781Z,7.53
2018-12-09T04:04:15.784Z,7.55
2018-12-09T04:05:15.796Z,7.55
2018-12-09T04:06:15.753Z,7.53
2018-12-09T04:07:15.740Z,7.55
2018-12-09T04:08:15.741Z,7.52
2018-12-09T04:09:15.722Z,7.55
2018-12-09T04:10:15.747Z,7.58
2018-12-09T04:11:15.716Z,7.55
2018-12-09T04:12:15.809Z,7.53
2018-12-09T04:13:15.680Z,7.58
2018-12-09T04:14:15.667Z,7.53
2018-12-09T04:15:15.679Z,7.56
2018-12-09T04:16:15.683Z,7.52
2018-12-09T04:17:15.650Z,7.53
2018-12-09T04:18:15.623Z,7.55
2018-12-09T04:19:15.612Z,7.59
2018-12-09T04:20:15.603Z,7.53
2018-12-09T04:21:15.617Z,7.53
2018-12-09T04:22:15.588Z,7.55
2018-12-09T04:23:15.578Z,7.55
2018-12-09T04:24:15.558Z,7.50
2018-12-09T04:25:15.546Z,7.55
2018-12-09T04:26:15.567Z,7.47
2018-12-09T04:27:15.530Z,7.47
2018-12-09T04:28:15.520Z,7.50
2018-12-09T04:29:15.505Z,7.41
2018-12-09T04:30:15.499Z,7.42
2018-12-09T04:31:15.520Z,7.34
2018-12-09T04:32:15.476Z,7.42
2018-12-09T04:33:15.465Z,7.44
2018-12-09T04:34:15.471Z,7.45
2018-12-09T04:35:15.442Z,7.44
2018-12-09T04:36:15.481Z,7.31
2018-12-09T04:37:15.420Z,7.32
2018-12-09T04:38:15.421Z,7.47
2018-12-09T04:39:15.397Z,7.42
2018-12-09T04:40:15.385Z,7.41
2018-12-09T04:41:15.372Z,7.42
2018-12-09T04:42:15.395Z,7.47
2018-12-09T04:43:15.356Z,7.41
2018-12-09T04:44:15.345Z,7.40
2018-12-09T04:45:15.386Z,7.31
2018-12-09T04:46:15.323Z,7.45
2018-12-09T04:47:15.358Z,7.45
2018-12-09T04:48:15.305Z,7.44
2018-12-09T04:49:15.289Z,7.42
2018-12-09T04:50:15.282Z,7.42
2018-12-09T04:51:15.266Z,7.47
2018-12-09T04:52:15.377Z,7.45
2018-12-09T04:53:15.246Z,7.45
2018-12-09T04:54:15.230Z,7.53
2018-12-09T04:55:15.240Z,7.49
2018-12-09T04:56:15.212Z,7.55
2018-12-09T04:57:15.204Z,7.58
2018-12-09T04:58:15.216Z,7.67
2018-12-09T04:59:15.177Z,7.60
2018-12-09T05:00:15.386Z,7.66
2018-12-09T05:01:15.160Z,7.55
2018-12-09T05:02:15.153Z,7.72
2018-12-09T05:03:15.379Z,7.74
2018-12-09T05:04:15.168Z,7.66
2018-12-09T05:05:15.115Z,7.60
2018-12-09T05:06:15.107Z,7.66
2018-12-09T05:07:15.098Z,7.67
2018-12-09T05:08:15.119Z,7.63
2018-12-09T05:09:15.080Z,7.66
2018-12-09T05:10:15.068Z,7.56
2018-12-09T05:11:15.053Z,7.69
2018-12-09T05:12:15.042Z,7.63
2018-12-09T05:13:15.059Z,7.58
2018-12-09T05:14:15.028Z,7.63
2018-12-09T05:15:15.015Z,7.59
2018-12-09T05:16:14.997Z,7.59
2018-12-09T05:17:14.990Z,7.62
2018-12-09T05:18:15.012Z,7.59
2018-12-09T05:19:14.989Z,7.63
2018-12-09T05:20:14.958Z,7.66
2018-12-09T05:21:14.943Z,7.63
2018-12-09T05:22:14.933Z,7.72
2018-12-09T05:23:14.947Z,7.66
2018-12-09T05:24:14.948Z,7.69
2018-12-09T05:25:14.905Z,7.63
2018-12-09T05:26:14.889Z,7.67
2018-12-09T05:27:14.891Z,7.55
2018-12-09T05:28:14.869Z,7.63
2018-12-09T05:29:14.889Z,7.58
2018-12-09T05:30:14.853Z,7.62
2018-12-09T05:31:14.834Z,7.66
2018-12-09T05:32:14.823Z,7.66
2018-12-09T05:33:14.814Z,7.72
2018-12-09T05:34:14.832Z,7.62
2018-12-09T05:35:14.798Z,7.72
2018-12-09T05:36:14.791Z,7.69
2018-12-09T05:37:14.774Z,7.77
2018-12-09T05:38:14.788Z,7.60
2018-12-09T05:39:14.752Z,7.74
2018-12-09T05:40:14.765Z,7.77
2018-12-09T05:41:14.728Z,7.71
2018-12-09T05:42:14.787Z,7.63
2018-12-09T05:43:14.746Z,7.71
2018-12-09T05:44:14.702Z,7.71
2018-12-09T05:45:14.687Z,7.62
2018-12-09T05:46:14.672Z,7.74
2018-12-09T05:47:14.671Z,7.75
2018-12-09T05:48:14.665Z,7.72
2018-12-09T05:49:14.671Z,7.71
2018-12-09T05:50:14.665Z,7.56
2018-12-09T05:51:14.627Z,7.77
2018-12-09T05:52:14.616Z,7.58
2018-12-09T05:53:14.603Z,7.60
2018-12-09T05:54:14.590Z,7.62
2018-12-09T05:55:14.609Z,7.69
2018-12-09T05:56:14.572Z,7.63
2018-12-09T05:57:14.563Z,7.59
2018-12-09T05:58:14.553Z,7.59
2018-12-09T05:59:14.538Z,7.63
2018-12-09T06:00:14.554Z,7.63
2018-12-09T06:01:14.515Z,7.66
2018-12-09T06:02:14.519Z,7.63
2018-12-09T06:03:14.501Z,7.67
2018-12-09T06:04:14.485Z,7.62
2018-12-09T06:05:14.514Z,7.69
2018-12-09T06:06:14.529Z,7.60
2018-12-09T06:07:14.458Z,7.66
2018-12-09T06:08:14.447Z,7.59
2018-12-09T06:09:14.439Z,7.60
2018-12-09T06:10:14.454Z,7.60
2018-12-09T06:11:14.412Z,7.62
2018-12-09T06:12:14.406Z,7.60
2018-12-09T06:13:14.390Z,7.59
2018-12-09T06:14:14.379Z,7.56
2018-12-09T06:15:14.375Z,7.58
2018-12-09T06:16:14.405Z,7.62
2018-12-09T06:17:14.355Z,7.67
2018-12-09T06:18:14.345Z,7.59
2018-12-09T06:19:14.341Z,7.58
2018-12-09T06:20:14.349Z,7.59
2018-12-09T06:21:14.354Z,7.69
2018-12-09T06:22:14.296Z,7.71
2018-12-09T06:23:14.287Z,7.71
2018-12-09T06:24:14.279Z,7.63
2018-12-09T06:25:14.281Z,7.66
2018-12-09T06:26:14.280Z,7.62
2018-12-09T06:27:14.248Z,7.71
2018-12-09T06:28:14.232Z,7.69
2018-12-09T06:29:14.224Z,7.60
2018-12-09T06:30:14.214Z,7.66
2018-12-09T06:31:14.250Z,7.62
2018-12-09T06:32:14.195Z,7.71
2018-12-09T06:33:14.186Z,7.66
2018-12-09T06:34:14.172Z,7.53
2018-12-09T06:35:14.182Z,7.52
2018-12-09T06:36:14.179Z,7.55
2018-12-09T06:37:14.140Z,7.56
2018-12-09T06:38:14.139Z,7.60
2018-12-09T06:39:14.125Z,7.53
2018-12-09T06:40:14.109Z,7.56
2018-12-09T06:41:14.118Z,7.49
2018-12-09T06:42:14.119Z,7.56
2018-12-09T06:43:14.077Z,7.44
2018-12-09T06:44:14.066Z,7.52
2018-12-09T06:45:14.054Z,7.47
2018-12-09T06:46:14.044Z,7.50
2018-12-09T06:47:14.076Z,7.41
2018-12-09T06:48:14.041Z,7.44
2018-12-09T06:49:14.014Z,7.53
2018-12-09T06:50:14.005Z,7.44
2018-12-09T06:51:13.996Z,7.47
2018-12-09T06:52:13.981Z,7.59
2018-12-09T06:53:14.000Z,7.55
2018-12-09T06:54:13.958Z,7.56
2018-12-09T06:55:13.957Z,7.53
2018-12-09T06:56:13.961Z,7.50
2018-12-09T06:57:13.955Z,7.56
2018-12-09T06:58:13.980Z,7.58
2018-12-09T06:59:13.907Z,7.72
2018-12-09T07:00:13.898Z,7.59
2018-12-09T07:01:13.932Z,7.74
2018-12-09T07:02:13.872Z,7.75
2018-12-09T07:03:13.889Z,7.75
2018-12-09T07:04:13.854Z,7.77
2018-12-09T07:05:13.837Z,7.78
2018-12-09T07:06:13.829Z,7.69
2018-12-09T07:07:13.825Z,7.72
2018-12-09T07:08:13.929Z,7.77
2018-12-09T07:09:13.815Z,7.67
2018-12-09T07:10:13.810Z,7.77
2018-12-09T07:11:13.779Z,7.72
2018-12-09T07:12:13.769Z,7.74
2018-12-09T07:13:13.783Z,7.85
2018-12-09T07:14:13.747Z,7.71
2018-12-09T07:15:13.759Z,7.67
2018-12-09T07:16:13.718Z,7.74
2018-12-09T07:17:13.768Z,7.69
2018-12-09T07:18:13.728Z,7.71
2018-12-09T07:19:13.699Z,7.77
2018-12-09T07:20:13.700Z,7.72
2018-12-09T07:21:13.686Z,7.72
2018-12-09T07:22:13.666Z,7.71
2018-12-09T07:23:13.667Z,7.72
2018-12-09T07:24:13.644Z,7.75
2018-12-09T07:25:13.622Z,7.77
2018-12-09T07:26:13.624Z,7.77
2018-12-09T07:27:13.611Z,7.75
2018-12-09T07:28:13.638Z,7.72
2018-12-09T07:29:13.590Z,7.74
2018-12-09T07:30:13.576Z,7.75
2018-12-09T07:31:13.566Z,7.82
2018-12-09T07:32:13.569Z,7.72
2018-12-09T07:33:13.551Z,7.78
2018-12-09T07:34:13.586Z,7.75
2018-12-09T07:35:13.514Z,7.81
2018-12-09T07:36:13.530Z,7.74
2018-12-09T07:37:13.511Z,7.77
2018-12-09T07:38:13.513Z,7.75
2018-12-09T07:39:13.485Z,7.77
2018-12-09T07:40:13.466Z,7.78
2018-12-09T07:41:13.455Z,7.78
2018-12-09T07:42:13.462Z,7.71
2018-12-09T07:43:13.467Z,7.72
2018-12-09T07:44:13.600Z,7.75
2018-12-09T07:45:13.409Z,7.78
2018-12-09T07:46:15.194Z,7.75
2018-12-09T07:47:13.391Z,7.72
2018-12-09T07:48:13.409Z,7.69
2018-12-09T07:49:13.417Z,7.74
2018-12-09T07:50:13.436Z,7.72
2018-12-09T07:51:13.345Z,7.78
2018-12-09T07:52:13.345Z,7.72
2018-12-09T07:53:13.364Z,7.69
2018-12-09T07:54:13.319Z,7.66
2018-12-09T07:55:13.320Z,7.66
2018-12-09T07:56:13.323Z,7.75
2018-12-09T07:57:13.287Z,7.62
2018-12-09T07:58:13.273Z,7.72
2018-12-09T07:59:13.299Z,7.72
2018-12-09T08:00:13.250Z,7.71
2018-12-09T08:01:13.260Z,7.69
2018-12-09T08:02:13.230Z,7.67
2018-12-09T08:03:13.220Z,7.67
2018-12-09T08:04:13.206Z,7.62
2018-12-09T08:05:13.227Z,7.60
2018-12-09T08:06:13.216Z,7.62
2018-12-09T08:07:13.192Z,7.69
2018-12-09T08:08:13.171Z,7.55
2018-12-09T08:09:13.153Z,7.59
2018-12-09T08:10:13.174Z,7.47
2018-12-09T08:11:13.132Z,7.42
2018-12-09T08:12:13.127Z,7.40
2018-12-09T08:13:13.131Z,7.34
2018-12-09T08:14:13.104Z,7.37
2018-12-09T08:15:13.246Z,7.29
2018-12-09T08:16:13.077Z,7.15
2018-12-09T08:17:13.084Z,7.16
2018-12-09T08:18:13.073Z,7.08
2018-12-09T08:19:13.075Z,7.09
2018-12-09T08:20:13.089Z,7.04
2018-12-09T08:21:13.040Z,7.04
2018-12-09T08:22:13.021Z,7.02
2018-12-09T08:23:13.006Z,6.97
2018-12-09T08:24:12.996Z,6.94
2018-12-09T08:25:13.109Z,6.87
2018-12-09T08:26:13.011Z,6.91
2018-12-09T08:27:12.957Z,6.77
2018-12-09T08:28:12.955Z,6.81
2018-12-09T08:29:12.942Z,6.89
2018-12-09T08:30:12.953Z,6.80
2018-12-09T08:31:12.911Z,6.77
2018-12-09T08:32:12.958Z,6.79
2018-12-09T08:33:12.889Z,6.65
2018-12-09T08:34:12.889Z,6.61
2018-12-09T08:35:12.884Z,6.68
2018-12-09T08:36:12.861Z,6.65
2018-12-09T08:37:12.887Z,6.68
2018-12-09T08:38:12.835Z,6.68
2018-12-09T08:39:12.840Z,6.61
2018-12-09T08:40:12.817Z,6.68
2018-12-09T08:41:12.818Z,6.56
2018-12-09T08:42:12.830Z,6.59
2018-12-09T08:43:12.784Z,6.61
2018-12-09T08:44:12.783Z,6.59
2018-12-09T08:45:12.767Z,6.47
2018-12-09T08:46:12.751Z,6.54
2018-12-09T08:47:12.769Z,6.53
2018-12-09T08:48:12.731Z,6.46
2018-12-09T08:49:12.717Z,6.48
2018-12-09T08:50:12.723Z,6.48
2018-12-09T08:51:12.721Z,6.41
2018-12-09T08:52:12.707Z,6.46
2018-12-09T08:53:12.705Z,6.43
2018-12-09T08:54:12.667Z,6.47
2018-12-09T08:55:12.653Z,6.47
2018-12-09T08:56:12.639Z,6.50
2018-12-09T08:57:12.656Z,6.50
2018-12-09T08:58:12.635Z,6.53
2018-12-09T08:59:12.617Z,6.46
2018-12-09T09:00:12.597Z,6.48
2018-12-09T09:01:12.585Z,6.43
2018-12-09T09:02:12.602Z,6.50
2018-12-09T09:03:12.631Z,6.47
2018-12-09T09:04:12.592Z,6.48
2018-12-09T09:05:12.546Z,6.43
2018-12-09T09:06:12.526Z,6.48
2018-12-09T09:07:12.517Z,6.44
2018-12-09T09:08:12.554Z,6.47
2018-12-09T09:09:12.528Z,6.47
2018-12-09T09:10:12.495Z,6.50
2018-12-09T09:11:12.522Z,6.44
2018-12-09T09:12:12.468Z,6.48
2018-12-09T09:13:12.484Z,6.44
2018-12-09T09:14:12.439Z,6.43
2018-12-09T09:15:12.428Z,6.40
2018-12-09T09:16:12.433Z,6.40
2018-12-09T09:17:12.410Z,6.46
2018-12-09T09:18:12.435Z,6.41
2018-12-09T09:19:12.392Z,6.46
2018-12-09T09:20:12.402Z,6.43
2018-12-09T09:21:12.386Z,6.48
2018-12-09T09:22:12.393Z,6.43
2018-12-09T09:23:12.356Z,6.53
2018-12-09T09:24:12.354Z,6.46
2018-12-09T09:25:12.343Z,6.44
2018-12-09T09:26:12.322Z,6.47
2018-12-09T09:27:12.318Z,6.46
2018-12-09T09:28:12.289Z,6.54
2018-12-09T09:29:12.320Z,6.58
2018-12-09T09:30:12.301Z,6.50
2018-12-09T09:31:12.270Z,6.54
2018-12-09T09:32:12.257Z,6.50
2018-12-09T09:33:12.259Z,6.63
2018-12-09T09:34:12.255Z,6.47
2018-12-09T09:35:12.214Z,6.62
2018-12-09T09:36:12.196Z,6.59
2018-12-09T09:37:12.191Z,6.68
2018-12-09T09:38:12.182Z,6.66
2018-12-09T09:39:12.191Z,6.53
2018-12-09T09:40:12.277Z,6.59
2018-12-09T09:41:12.176Z,6.54
2018-12-09T09:42:12.133Z,6.47
2018-12-09T09:43:12.153Z,6.46
2018-12-09T09:44:12.150Z,6.46
2018-12-09T09:45:12.101Z,6.46
2018-12-09T09:46:12.119Z,6.46
2018-12-09T09:47:12.079Z,6.36
2018-12-09T09:48:12.069Z,6.36
2018-12-09T09:49:12.144Z,6.40
2018-12-09T09:50:12.291Z,6.36
2018-12-09T09:51:12.037Z,6.40
2018-12-09T09:52:12.027Z,6.38
2018-12-09T09:53:12.054Z,6.36
2018-12-09T09:54:12.003Z,6.35
2018-12-09T09:55:11.993Z,6.35
2018-12-09T09:56:12.010Z,6.36
2018-12-09T09:57:11.969Z,6.47
2018-12-09T09:58:11.974Z,6.46
2018-12-09T09:59:11.947Z,6.48
2018-12-09T10:00:11.973Z,6.47
2018-12-09T10:01:11.955Z,6.53
2018-12-09T10:02:11.926Z,6.44
2018-12-09T10:03:11.933Z,6.56
2018-12-09T10:04:11.925Z,6.58
2018-12-09T10:05:11.919Z,6.58
2018-12-09T10:06:11.888Z,6.54
2018-12-09T10:07:11.883Z,6.50
2018-12-09T10:08:11.857Z,6.54
2018-12-09T10:09:11.844Z,6.48
2018-12-09T10:10:11.833Z,6.47
2018-12-09T10:11:11.909Z,6.56
2018-12-09T10:12:11.810Z,6.51
2018-12-09T10:13:11.802Z,6.58
2018-12-09T10:14:11.793Z,6.56
2018-12-09T10:15:11.864Z,6.58
2018-12-09T10:16:11.899Z,6.53
2018-12-09T10:17:11.765Z,6.53
2018-12-09T10:18:11.745Z,6.54
2018-12-09T10:19:11.744Z,6.51
2018-12-09T10:20:11.730Z,6.48
2018-12-09T10:21:11.716Z,6.44
2018-12-09T10:22:11.724Z,6.58
2018-12-09T10:23:11.688Z,6.53
2018-12-09T10:24:11.682Z,6.54
2018-12-09T10:25:11.667Z,6.54
2018-12-09T10:26:11.689Z,6.46
2018-12-09T10:27:11.674Z,6.47
2018-12-09T10:28:11.640Z,6.59
2018-12-09T10:29:11.639Z,6.48
2018-12-09T10:30:11.617Z,6.53
2018-12-09T10:31:11.634Z,6.58
2018-12-09T10:32:11.628Z,6.53
2018-12-09T10:33:11.585Z,6.44
2018-12-09T10:34:11.585Z,6.50
2018-12-09T10:35:11.563Z,6.40
2018-12-09T10:36:11.550Z,6.38
2018-12-09T10:37:11.573Z,6.48
2018-12-09T10:38:11.526Z,6.40
2018-12-09T10:39:11.518Z,6.40
2018-12-09T10:40:11.511Z,6.43
2018-12-09T10:41:11.508Z,6.33
2018-12-09T10:42:11.506Z,6.40
2018-12-09T10:43:11.504Z,6.38
2018-12-09T10:44:11.462Z,6.41
2018-12-09T10:45:11.455Z,6.35
2018-12-09T10:46:11.443Z,6.36
2018-12-09T10:47:11.432Z,6.36
2018-12-09T10:48:11.445Z,6.38
2018-12-09T10:49:11.413Z,6.36
2018-12-09T10:50:11.407Z,6.40
2018-12-09T10:51:11.394Z,6.47
2018-12-09T10:52:11.378Z,6.47
2018-12-09T10:53:11.401Z,6.43
2018-12-09T10:54:11.358Z,6.50
2018-12-09T10:55:11.347Z,6.54
2018-12-09T10:56:11.336Z,6.61
2018-12-09T10:57:11.329Z,6.50
2018-12-09T10:58:11.354Z,6.58
2018-12-09T10:59:11.306Z,6.62
2018-12-09T11:00:11.295Z,6.63
2018-12-09T11:01:11.292Z,6.62
2018-12-09T11:02:11.271Z,6.63
2018-12-09T11:03:11.266Z,6.50
2018-12-09T11:04:11.292Z,6.48
2018-12-09T11:05:11.242Z,6.56
2018-12-09T11:06:11.306Z,6.66
2018-12-09T11:07:11.226Z,6.66
2018-12-09T11:08:11.240Z,6.72
2018-12-09T11:09:11.214Z,6.73
2018-12-09T11:10:11.188Z,6.81
2018-12-09T11:11:11.181Z,6.80
2018-12-09T11:12:11.167Z,6.77
2018-12-09T11:13:11.172Z,6.80
2018-12-09T11:14:11.210Z,6.86
2018-12-09T11:15:11.172Z,6.80
2018-12-09T11:16:11.127Z,6.79
2018-12-09T11:17:11.116Z,6.69
2018-12-09T11:18:11.107Z,6.77
2018-12-09T11:19:11.108Z,6.72
2018-12-09T11:20:11.103Z,6.73
2018-12-09T11:21:11.077Z,6.63
2018-12-09T11:22:11.059Z,6.73
2018-12-09T11:23:11.054Z,6.80
2018-12-09T11:24:11.049Z,6.80
2018-12-09T11:25:11.061Z,6.83
2018-12-09T11:26:11.017Z,6.91
2018-12-09T11:27:11.004Z,6.89
2018-12-09T11:28:10.996Z,6.80
2018-12-09T11:29:10.986Z,6.90
2018-12-09T11:30:11.055Z,6.87
2018-12-09T11:31:11.091Z,6.90
2018-12-09T11:32:10.967Z,6.90
2018-12-09T11:33:10.945Z,6.90
2018-12-09T11:34:10.929Z,6.87
2018-12-09T11:35:10.955Z,6.99
2018-12-09T11:36:10.919Z,6.98
2018-12-09T11:37:10.912Z,6.97
2018-12-09T11:38:10.898Z,6.94
2018-12-09T11:39:10.882Z,6.98
2018-12-09T11:40:10.904Z,6.94
2018-12-09T11:41:10.861Z,6.90
2018-12-09T11:42:10.853Z,6.94
2018-12-09T11:43:10.836Z,6.84
2018-12-09T11:44:10.828Z,6.81
2018-12-09T11:45:10.813Z,6.79
2018-12-09T11:46:10.833Z,6.84
2018-12-09T11:47:10.787Z,6.89
2018-12-09T11:48:10.779Z,6.79
2018-12-09T11:49:10.778Z,6.79
2018-12-09T11:50:10.787Z,6.79
2018-12-09T11:51:10.772Z,6.83
2018-12-09T11:52:10.736Z,6.76
2018-12-09T11:53:10.732Z,6.77
2018-12-09T11:54:10.717Z,6.77
2018-12-09T11:55:10.706Z,6.83
2018-12-09T11:56:10.724Z,6.83
2018-12-09T11:57:10.681Z,6.80
2018-12-09T11:58:10.674Z,6.84
2018-12-09T11:59:11.981Z,6.80
2018-12-09T12:00:10.650Z,6.80
2018-12-09T12:01:10.673Z,6.91
2018-12-09T12:02:10.670Z,6.89
2018-12-09T12:03:10.655Z,6.91
2018-12-09T12:04:10.606Z,6.99
2018-12-09T12:05:10.606Z,7.02
2018-12-09T12:06:10.609Z,6.94
2018-12-09T12:07:10.631Z,7.04
2018-12-09T12:08:10.572Z,6.99
2018-12-09T12:09:10.559Z,7.12
2018-12-09T12:10:10.545Z,6.99
2018-12-09T12:11:10.542Z,7.07
2018-12-09T12:12:10.547Z,7.07
2018-12-09T12:13:10.541Z,7.09
2018-12-09T12:14:10.520Z,7.15
2018-12-09T12:15:10.489Z,7.09
2018-12-09T12:16:10.488Z,7.19
2018-12-09T12:17:10.499Z,7.20
2018-12-09T12:18:10.459Z,7.16
2018-12-09T12:19:10.446Z,7.27
2018-12-09T12:20:10.432Z,7.40
2018-12-09T12:22:11.565Z,7.42
2018-12-09T12:23:10.409Z,7.32
2018-12-09T12:24:10.424Z,7.34
2018-12-09T12:25:10.454Z,7.37
2018-12-09T12:26:10.380Z,7.37
2018-12-09T12:27:10.362Z,7.44
2018-12-09T12:28:10.369Z,7.32
2018-12-09T12:29:10.367Z,7.47
2018-12-09T12:30:10.325Z,7.49
2018-12-09T12:31:10.328Z,7.56
2018-12-09T12:32:10.309Z,7.63
2018-12-09T12:33:10.300Z,7.72
2018-12-09T12:34:10.313Z,7.72
2018-12-09T12:35:10.285Z,7.78
2018-12-09T12:36:10.264Z,7.82
2018-12-09T12:37:10.257Z,8.00
2018-12-09T12:38:10.286Z,8.03
2018-12-09T12:39:10.256Z,8.07
2018-12-09T12:40:10.223Z,7.94
2018-12-09T12:41:10.212Z,7.96
2018-12-09T12:42:10.202Z,7.96
2018-12-09T12:43:10.192Z,7.97
2018-12-09T12:44:10.226Z,8.03
2018-12-09T12:45:10.174Z,8.10
2018-12-09T12:46:10.188Z,7.99
2018-12-09T12:47:10.157Z,8.07
2018-12-09T12:48:10.142Z,8.10
2018-12-09T12:49:10.168Z,8.02
2018-12-09T12:50:10.120Z,8.10
2018-12-09T12:51:10.105Z,8.18
2018-12-09T12:52:10.720Z,8.18
2018-12-09T12:53:10.099Z,8.14
2018-12-09T12:54:10.079Z,8.12
2018-12-09T12:55:10.104Z,8.08
2018-12-09T12:56:10.062Z,8.15
2018-12-09T12:57:10.081Z,8.15
2018-12-09T12:58:10.039Z,8.15
2018-12-09T12:59:10.115Z,8.15
2018-12-09T13:00:10.047Z,8.20
2018-12-09T13:01:10.040Z,8.30
2018-12-09T13:02:09.990Z,8.29
2018-12-09T13:03:09.994Z,8.29
2018-12-09T13:04:09.976Z,8.22
2018-12-09T13:05:09.974Z,8.32
2018-12-09T13:06:09.961Z,8.26
2018-12-09T13:07:09.979Z,8.25
2018-12-09T13:08:09.932Z,8.33
2018-12-09T13:09:09.932Z,8.36
2018-12-09T13:10:09.945Z,8.44
2018-12-09T13:11:10.002Z,8.50
2018-12-09T13:12:09.896Z,8.42
2018-12-09T13:13:09.968Z,8.47
2018-12-09T13:14:09.874Z,8.47
2018-12-09T13:15:09.878Z,8.47
2018-12-09T13:16:09.915Z,8.44
2018-12-09T13:17:09.862Z,8.45
2018-12-09T13:18:09.872Z,8.42
2018-12-09T13:19:09.825Z,8.33